Time;durP1;ratioP1;P1;durP2;ratioP2;P2;SDS_P1;SDS_P2;PMS_P1;PMS_P2;Temp;Humidity;BMP_temperature;BMP_pressure;BME280_temperature;BME280_humidity;BME280_pressure;Samples;Min_cycle;Max_cycle;Signal;HPM_P1;HPM_P2
2022/08/29 00:01:24;;;;;;;9.00;3.37;;;17.50;99.90;;;;;;5095751;28;20110;-67
2022/08/29 00:03:52;;;;;;;7.37;3.40;;;17.50;99.90;;;;;;5095771;28;20113;-67
2022/08/29 00:06:18;;;;;;;9.83;3.27;;;17.50;99.90;;;;;;5094485;28;20097;-67
2022/08/29 00:08:44;;;;;;;10.23;3.30;;;17.50;99.90;;;;;;5095274;28;20052;-67
2022/08/29 00:11:10;;;;;;;6.73;3.20;;;17.50;99.90;;;;;;5094522;28;20060;-66
2022/08/29 00:13:35;;;;;;;9.50;3.53;;;17.50;99.90;;;;;;5095165;28;20063;-67
2022/08/29 00:16:02;;;;;;;8.40;3.33;;;17.50;99.90;;;;;;5095634;28;20450;-67
2022/08/29 00:18:28;;;;;;;9.33;3.17;;;17.50;99.90;;;;;;5095321;28;20055;-66
2022/08/29 00:20:54;;;;;;;8.17;3.20;;;17.50;99.90;;;;;;5095407;28;20095;-66
2022/08/29 00:23:20;;;;;;;9.23;3.37;;;17.50;99.90;;;;;;5095262;28;20048;-66
2022/08/29 00:25:46;;;;;;;7.03;3.10;;;17.50;99.90;;;;;;5094207;28;20051;-66
2022/08/29 00:28:11;;;;;;;9.70;3.30;;;17.50;99.90;;;;;;5095712;28;20181;-66
2022/08/29 00:30:37;;;;;;;7.47;3.40;;;17.50;99.90;;;;;;5095080;28;20052;-67
2022/08/29 00:33:03;;;;;;;7.83;3.07;;;17.50;99.90;;;;;;5095335;28;20083;-66
2022/08/29 00:35:36;;;;;;;7.53;3.40;;;17.50;99.90;;;;;;5094708;28;20048;-67
2022/08/29 00:38:04;;;;;;;9.07;3.30;;;17.50;99.90;;;;;;5094985;28;20048;-66
2022/08/29 00:40:34;;;;;;;8.27;4.13;;;17.50;99.90;;;;;;5095142;28;20047;-67
2022/08/29 00:43:00;;;;;;;8.00;3.20;;;17.50;99.90;;;;;;5095039;28;20140;-66
2022/08/29 00:45:26;;;;;;;9.90;3.43;;;17.40;99.90;;;;;;5094973;28;20102;-69
2022/08/29 00:47:57;;;;;;;8.80;2.97;;;17.40;99.90;;;;;;5094891;28;20048;-66
2022/08/29 00:50:37;;;;;;;9.17;3.13;;;17.40;99.90;;;;;;5094810;28;20126;-67
2022/08/29 00:53:07;;;;;;;7.23;3.10;;;17.40;99.90;;;;;;5095120;28;20051;-67
2022/08/29 00:55:34;;;;;;;10.20;2.87;;;17.40;99.90;;;;;;5094409;28;20557;-67
2022/08/29 00:58:21;;;;;;;10.97;3.87;;;17.40;99.90;;;;;;5094789;28;20056;-67
2022/08/29 01:00:48;;;;;;;7.43;3.27;;;17.40;99.90;;;;;;5094298;28;20941;-66
2022/08/29 01:03:14;;;;;;;7.83;3.30;;;17.40;99.90;;;;;;5094451;28;20052;-67
2022/08/29 01:05:41;;;;;;;10.43;3.20;;;17.40;99.90;;;;;;5094327;28;20040;-66
2022/08/29 01:08:07;;;;;;;10.30;3.63;;;17.40;99.90;;;;;;5094594;28;20051;-67
2022/08/29 01:13:22;;;;;;;7.17;3.10;;;17.40;99.90;;;;;;5094221;28;20142;-67
2022/08/29 01:15:49;;;;;;;8.60;3.83;;;17.40;99.90;;;;;;5094049;28;20048;-66
2022/08/29 01:18:16;;;;;;;10.23;3.70;;;17.40;99.90;;;;;;5093122;28;20048;-66
2022/08/29 01:21:20;;;;;;;9.30;3.30;;;17.40;99.90;;;;;;5094115;28;20059;-66
2022/08/29 01:23:56;;;;;;;8.70;3.17;;;17.40;99.90;;;;;;5093878;28;20098;-67
2022/08/29 01:26:22;;;;;;;9.33;3.80;;;17.40;99.90;;;;;;5076503;28;20053;-66
2022/08/29 01:28:50;;;;;;;10.83;3.50;;;17.40;99.90;;;;;;5093897;28;20073;-66
2022/08/29 01:31:39;;;;;;;8.13;3.73;;;17.40;99.90;;;;;;5094187;28;20156;-66
2022/08/29 01:34:05;;;;;;;10.37;4.40;;;17.40;99.90;;;;;;5094046;28;20048;-66
2022/08/29 01:36:44;;;;;;;8.80;3.87;;;17.40;99.90;;;;;;5093713;28;20136;-66
2022/08/29 01:39:10;;;;;;;9.90;3.50;;;17.40;99.90;;;;;;5092821;28;20051;-66
2022/08/29 01:41:36;;;;;;;7.10;3.17;;;17.40;99.90;;;;;;5093549;28;20036;-67
2022/08/29 01:44:09;;;;;;;7.47;3.53;;;17.30;99.90;;;;;;5093655;28;20476;-66
2022/08/29 01:46:35;;;;;;;8.37;3.33;;;17.30;99.90;;;;;;5093386;28;20040;-67
2022/08/29 01:49:03;;;;;;;9.13;3.67;;;17.30;99.90;;;;;;5093510;28;20101;-66
2022/08/29 01:51:29;;;;;;;8.87;3.47;;;;;;;;;;5093764;28;20040;-66
2022/08/29 01:53:55;;;;;;;8.87;3.87;;;17.30;99.90;;;;;;5093419;28;20150;-66
2022/08/29 01:56:28;;;;;;;8.83;3.20;;;17.30;99.90;;;;;;5093704;28;20555;-66
2022/08/29 01:58:58;;;;;;;8.00;3.80;;;17.30;99.90;;;;;;5093238;28;20040;-66
2022/08/29 02:01:29;;;;;;;8.10;3.70;;;17.30;99.90;;;;;;5093334;28;20142;-64
2022/08/29 02:03:57;;;;;;;7.13;3.00;;;17.30;99.90;;;;;;5093003;28;20476;-64
2022/08/29 02:06:23;;;;;;;9.73;3.70;;;17.30;99.90;;;;;;5093490;28;20044;-65
2022/08/29 02:08:49;;;;;;;7.00;2.83;;;17.30;99.90;;;;;;5093101;28;20048;-67
2022/08/29 02:11:16;;;;;;;8.60;3.47;;;17.30;99.90;;;;;;5093171;28;20051;-66
2022/08/29 02:14:02;;;;;;;9.97;3.63;;;17.30;99.90;;;;;;5092917;28;20407;-66
2022/08/29 02:16:28;;;;;;;8.37;3.40;;;17.30;99.90;;;;;;5093361;28;20051;-66
2022/08/29 02:18:55;;;;;;;8.43;3.70;;;17.30;99.90;;;;;;5093034;28;20048;-67
2022/08/29 02:21:23;;;;;;;8.40;3.53;;;17.30;99.90;;;;;;5093246;28;20051;-67
2022/08/29 02:23:50;;;;;;;7.80;3.37;;;17.30;99.90;;;;;;5091846;28;20480;-67
2022/08/29 02:26:19;;;;;;;8.93;3.50;;;17.30;99.90;;;;;;5091861;28;20419;-67
2022/08/29 02:28:46;;;;;;;8.27;3.10;;;17.30;99.90;;;;;;5092900;28;20044;-67
2022/08/29 02:31:12;;;;;;;8.70;4.13;;;17.30;99.90;;;;;;5092259;28;20044;-66
2022/08/29 02:33:38;;;;;;;9.17;3.77;;;17.20;99.90;;;;;;5092995;28;20101;-66
2022/08/29 02:36:06;;;;;;;10.20;3.37;;;17.20;99.90;;;;;;5092734;28;20123;-67
2022/08/29 02:38:32;;;;;;;8.53;3.40;;;17.20;99.90;;;;;;5093113;28;20052;-66
2022/08/29 02:40:57;;;;;;;8.90;4.03;;;17.20;99.90;;;;;;5091241;28;20074;-66
2022/08/29 02:43:24;;;;;;;8.83;3.53;;;17.20;99.90;;;;;;5093181;28;20048;-66
2022/08/29 02:45:50;;;;;;;8.00;3.33;;;17.30;99.90;;;;;;5092685;28;20058;-66
2022/08/29 02:48:17;;;;;;;11.33;4.10;;;17.20;99.90;;;;;;5092919;28;20396;-66
2022/08/29 02:50:46;;;;;;;9.17;3.67;;;17.20;99.90;;;;;;5092677;28;20036;-69
2022/08/29 02:53:14;;;;;;;7.40;3.20;;;17.20;99.90;;;;;;5092776;28;20051;-66
2022/08/29 02:55:40;;;;;;;9.37;3.80;;;17.20;99.90;;;;;;5092562;28;20043;-67
2022/08/29 02:58:06;;;;;;;7.37;3.37;;;17.10;99.90;;;;;;5092539;28;20048;-67
2022/08/29 03:00:33;;;;;;;8.63;3.70;;;17.10;99.90;;;;;;5092940;28;20048;-66
2022/08/29 03:03:00;;;;;;;10.70;3.50;;;17.10;99.90;;;;;;5092568;28;20048;-67
2022/08/29 03:05:28;;;;;;;10.27;3.70;;;17.10;99.90;;;;;;5092622;28;20044;-66
2022/08/29 03:07:55;;;;;;;9.73;3.57;;;17.20;99.90;;;;;;5092349;28;20507;-67
2022/08/29 03:10:22;;;;;;;8.07;3.10;;;17.20;99.90;;;;;;5092507;28;20513;-66
2022/08/29 03:12:48;;;;;;;10.13;4.00;;;17.20;99.90;;;;;;5092377;28;20134;-67
2022/08/29 03:15:15;;;;;;;8.47;3.10;;;17.10;99.90;;;;;;5092726;28;20114;-66
2022/08/29 03:17:40;;;;;;;9.07;3.97;;;17.20;99.90;;;;;;5092516;28;20059;-66
2022/08/29 03:20:08;;;;;;;12.37;3.17;;;17.20;99.90;;;;;;5092334;28;20063;-66
2022/08/29 03:22:35;;;;;;;10.33;3.27;;;17.20;99.90;;;;;;5092463;28;20048;-67
2022/08/29 03:25:03;;;;;;;9.43;3.03;;;17.20;99.90;;;;;;5092076;28;20062;-66
2022/08/29 03:27:30;;;;;;;10.07;3.33;;;17.20;99.90;;;;;;5092551;28;20044;-66
2022/08/29 03:29:57;;;;;;;11.17;3.53;;;17.20;99.90;;;;;;5092289;28;20047;-66
2022/08/29 03:32:23;;;;;;;8.57;3.20;;;17.20;99.90;;;;;;5092516;28;20093;-67
2022/08/29 03:34:49;;;;;;;9.57;3.50;;;17.20;99.90;;;;;;5092081;28;20048;-67
2022/08/29 03:37:15;;;;;;;8.53;3.43;;;17.20;99.90;;;;;;5092301;28;20036;-67
2022/08/29 03:39:40;;;;;;;10.30;3.10;;;17.20;99.90;;;;;;5092240;28;20044;-66
2022/08/29 03:42:07;;;;;;;9.70;3.20;;;17.20;99.90;;;;;;5093535;28;20044;-66
2022/08/29 03:44:38;;;;;;;8.87;2.83;;;17.20;99.90;;;;;;5096211;28;20051;-66
2022/08/29 03:47:05;;;;;;;9.97;3.17;;;17.10;99.90;;;;;;5095893;28;20085;-66
2022/08/29 03:49:31;;;;;;;10.13;3.13;;;17.20;99.90;;;;;;5094953;28;20506;-66
2022/08/29 03:51:57;;;;;;;10.63;3.10;;;17.20;99.90;;;;;;5095552;28;20131;-66
2022/08/29 03:54:23;;;;;;;9.57;3.13;;;17.20;99.90;;;;;;5096325;28;20127;-66
2022/08/29 03:56:49;;;;;;;7.30;3.03;;;17.20;99.90;;;;;;5094898;28;20044;-66
2022/08/29 03:59:16;;;;;;;15.33;4.40;;;17.20;99.90;;;;;;5095631;28;20090;-66
2022/08/29 04:01:42;;;;;;;10.97;3.37;;;17.20;99.90;;;;;;5095844;28;20087;-66
2022/08/29 04:05:05;;;;;;;10.17;2.90;;;17.10;99.90;;;;;;5095415;28;20137;-66
2022/08/29 04:06:53;;;;;;;8.23;3.13;;;17.10;99.90;;;;;;5095685;28;20048;-66
2022/08/29 04:09:19;;;;;;;9.57;3.20;;;17.10;99.90;;;;;;5095760;28;20491;-66
2022/08/29 04:11:44;;;;;;;10.93;4.30;;;17.10;99.90;;;;;;5095475;28;20043;-66
2022/08/29 04:14:11;;;;;;;9.97;2.83;;;17.20;99.90;;;;;;5095375;28;20066;-66
2022/08/29 04:16:37;;;;;;;8.10;3.07;;;17.20;99.90;;;;;;5095419;28;20040;-66
2022/08/29 04:19:03;;;;;;;10.13;3.27;;;17.10;99.90;;;;;;5095057;28;20044;-66
2022/08/29 04:21:29;;;;;;;9.07;2.83;;;17.20;99.90;;;;;;5095441;28;20165;-66
2022/08/29 04:23:55;;;;;;;9.37;3.13;;;17.20;99.90;;;;;;5095335;28;20043;-68
2022/08/29 04:26:22;;;;;;;8.57;2.80;;;17.20;99.90;;;;;;5095458;28;20044;-66
2022/08/29 04:28:47;;;;;;;8.57;3.00;;;17.10;99.90;;;;;;5095279;28;20048;-66
2022/08/29 04:31:18;;;;;;;9.67;3.13;;;17.10;99.90;;;;;;5094971;28;20054;-66
2022/08/29 04:33:48;;;;;;;5.83;2.40;;;17.10;99.90;;;;;;5095150;28;20039;-66
2022/08/29 04:36:15;;;;;;;9.63;3.37;;;17.20;99.90;;;;;;5095208;28;20044;-66
2022/08/29 04:38:41;;;;;;;10.10;3.40;;;17.20;99.90;;;;;;5095087;28;20070;-66
2022/08/29 04:41:13;;;;;;;11.67;2.90;;;17.10;99.90;;;;;;5094910;28;20055;-66
2022/08/29 04:43:40;;;;;;;6.87;2.87;;;17.10;99.90;;;;;;5095265;28;20407;-66
2022/08/29 04:46:05;;;;;;;8.57;2.73;;;17.20;99.90;;;;;;5093508;28;20056;-66
2022/08/29 04:48:31;;;;;;;9.63;3.00;;;17.20;99.90;;;;;;5094902;28;20384;-66
2022/08/29 04:50:59;;;;;;;9.13;3.10;;;17.20;99.90;;;;;;5093930;28;20054;-67
2022/08/29 04:53:26;;;;;;;7.43;2.70;;;17.20;99.90;;;;;;5093987;28;20499;-66
2022/08/29 04:56:05;;;;;;;9.53;3.00;;;17.20;99.90;;;;;;5094755;28;20055;-66
2022/08/29 04:58:36;;;;;;;9.27;2.53;;;17.20;99.90;;;;;;5094715;28;20110;-66
2022/08/29 05:01:02;;;;;;;8.37;3.03;;;17.20;99.90;;;;;;5094429;28;20044;-66
2022/08/29 05:03:29;;;;;;;8.53;2.70;;;17.20;99.90;;;;;;5094897;28;20070;-66
2022/08/29 05:06:00;;;;;;;10.47;3.37;;;17.20;99.90;;;;;;5094583;28;20046;-66
2022/08/29 05:08:27;;;;;;;7.27;3.13;;;17.20;99.90;;;;;;5094871;28;20070;-66
2022/08/29 05:10:53;;;;;;;10.43;3.33;;;17.10;99.90;;;;;;5093552;28;20056;-66
2022/08/29 05:13:19;;;;;;;8.47;3.03;;;17.20;99.90;;;;;;5093895;28;20058;-66
2022/08/29 05:15:45;;;;;;;9.10;3.20;;;17.20;99.90;;;;;;5094533;28;20150;-66
2022/08/29 05:18:16;;;;;;;8.53;3.03;;;17.20;99.90;;;;;;5094225;28;20546;-66
2022/08/29 05:20:44;;;;;;;7.47;3.00;;;17.20;99.90;;;;;;5094460;28;20450;-66
2022/08/29 05:23:11;;;;;;;7.27;2.60;;;17.20;99.90;;;;;;5092957;28;20131;-66
2022/08/29 05:25:37;;;;;;;8.67;2.77;;;17.20;99.90;;;;;;5094156;28;20048;-66
2022/08/29 05:28:04;;;;;;;8.30;3.13;;;17.20;99.90;;;;;;5093695;28;20055;-66
2022/08/29 05:30:30;;;;;;;12.10;2.60;;;17.20;99.90;;;;;;5094379;28;20112;-66
2022/08/29 05:32:57;;;;;;;8.43;2.70;;;17.30;99.90;;;;;;5094049;28;20051;-66
2022/08/29 05:35:23;;;;;;;8.37;2.57;;;17.30;99.90;;;;;;5093745;28;20036;-66
2022/08/29 05:37:49;;;;;;;13.17;3.37;;;17.30;99.90;;;;;;5093955;28;20083;-66
2022/08/29 05:40:14;;;;;;;8.47;2.93;;;17.30;99.90;;;;;;5092685;28;20094;-66
2022/08/29 05:42:41;;;;;;;7.60;2.70;;;17.40;99.90;;;;;;5093823;28;20072;-66
2022/08/29 05:45:08;;;;;;;10.33;3.60;;;17.40;99.90;;;;;;5093678;28;20145;-66
2022/08/29 05:47:34;;;;;;;8.00;2.80;;;17.50;99.90;;;;;;5094201;28;20044;-66
2022/08/29 05:49:59;;;;;;;7.33;2.40;;;17.50;99.90;;;;;;5092819;28;20476;-66
2022/08/29 05:52:26;;;;;;;7.27;2.67;;;17.50;99.90;;;;;;5093452;28;20044;-66
2022/08/29 05:54:52;;;;;;;7.23;2.57;;;17.60;99.90;;;;;;5093505;28;20101;-66
2022/08/29 05:57:20;;;;;;;8.47;2.77;;;17.60;99.90;;;;;;5091888;28;20056;-66
2022/08/29 05:59:51;;;;;;;8.80;2.73;;;17.60;99.90;;;;;;5093669;28;20055;-66
2022/08/29 06:02:18;;;;;;;9.30;2.80;;;17.70;99.90;;;;;;5093517;28;20059;-66
2022/08/29 06:04:44;;;;;;;9.77;3.10;;;17.70;99.90;;;;;;5093598;28;20131;-66
2022/08/29 06:07:11;;;;;;;6.63;2.70;;;17.80;99.90;;;;;;5093215;28;20119;-67
2022/08/29 06:09:38;;;;;;;7.77;2.70;;;17.90;99.90;;;;;;5093342;28;20055;-67
2022/08/29 06:12:05;;;;;;;9.23;2.20;;;17.90;99.90;;;;;;5093485;28;20097;-67
2022/08/29 06:14:31;;;;;;;13.17;3.30;;;17.90;99.90;;;;;;5093077;28;20110;-67
2022/08/29 06:16:57;;;;;;;9.77;2.80;;;18.00;99.90;;;;;;5093239;28;20047;-67
2022/08/29 06:19:23;;;;;;;8.50;2.53;;;18.10;99.90;;;;;;5092991;28;20047;-68
2022/08/29 06:21:49;;;;;;;10.70;2.80;;;18.20;99.90;;;;;;5093178;28;20043;-67
2022/08/29 06:24:15;;;;;;;6.07;2.30;;;18.20;99.90;;;;;;5074951;28;20067;-67
2022/08/29 06:26:43;;;;;;;14.03;2.83;;;18.30;99.90;;;;;;5093595;28;20036;-67
2022/08/29 06:29:09;;;;;;;12.63;2.57;;;18.40;99.90;;;;;;5093173;28;20044;-67
2022/08/29 06:31:36;;;;;;;9.93;2.47;;;18.50;99.90;;;;;;5092134;28;20506;-67
2022/08/29 06:34:03;;;;;;;11.23;3.20;;;18.60;99.90;;;;;;5093223;28;20097;-67
2022/08/29 06:36:30;;;;;;;13.57;3.20;;;18.60;99.90;;;;;;5092540;28;20547;-67
2022/08/29 06:39:00;;;;;;;10.47;2.83;;;18.70;99.90;;;;;;5092952;28;20044;-67
2022/08/29 06:41:28;;;;;;;9.57;2.97;;;18.60;99.90;;;;;;5092888;28;20044;-68
2022/08/29 06:43:55;;;;;;;10.27;2.83;;;18.60;99.90;;;;;;5092918;28;20048;-70
2022/08/29 06:46:25;;;;;;;7.70;2.30;;;18.50;99.90;;;;;;5092616;28;20089;-71
2022/08/29 06:48:52;;;;;;;8.93;3.07;;;18.50;99.90;;;;;;5093051;28;20040;-68
2022/08/29 06:51:18;;;;;;;9.17;2.80;;;18.50;99.90;;;;;;5092443;28;20055;-69
2022/08/29 06:53:45;;;;;;;9.27;2.93;;;18.50;99.90;;;;;;5092891;28;20040;-68
2022/08/29 06:56:11;;;;;;;12.13;2.97;;;18.50;99.90;;;;;;5092783;28;20040;-68
2022/08/29 06:58:37;;;;;;;9.87;2.60;;;18.60;99.90;;;;;;5092385;28;20055;-66
2022/08/29 07:01:15;;;;;;;9.60;2.80;;;18.60;99.90;;;;;;5092815;28;20040;-68
2022/08/29 07:03:41;;;;;;;15.43;3.57;;;18.60;99.90;;;;;;5092641;28;20044;-68
2022/08/29 07:06:08;;;;;;;12.80;3.00;;;18.80;99.90;;;;;;5092492;28;20094;-67
2022/08/29 07:08:35;;;;;;;10.60;2.90;;;18.90;99.90;;;;;;5091483;28;20052;-69
2022/08/29 07:11:01;;;;;;;8.93;2.97;;;18.90;99.90;;;;;;5091718;28;20044;-69
2022/08/29 07:13:27;;;;;;;9.37;2.80;;;19.10;99.90;;;;;;5092157;28;20093;-67
2022/08/29 07:15:52;;;;;;;10.47;2.50;;;19.20;99.90;;;;;;5092773;28;20126;-67
2022/08/29 07:18:19;;;;;;;13.77;3.03;;;19.30;99.90;;;;;;5096452;28;20052;-67
2022/08/29 07:20:45;;;;;;;12.50;2.27;;;19.20;99.90;;;;;;5097028;28;20130;-66
2022/08/29 07:23:11;;;;;;;11.97;2.40;;;19.20;99.90;;;;;;5096725;28;20127;-66
2022/08/29 07:25:37;;;;;;;8.10;2.60;;;19.30;99.90;;;;;;5096358;28;20101;-67
2022/08/29 07:28:04;;;;;;;6.93;2.33;;;19.40;99.90;;;;;;5095287;28;20087;-67
2022/08/29 07:30:30;;;;;;;9.93;2.53;;;19.50;99.90;;;;;;5096252;28;20484;-67
2022/08/29 07:32:56;;;;;;;11.17;2.80;;;19.60;99.90;;;;;;5096363;28;20048;-67
2022/08/29 07:35:23;;;;;;;9.57;3.00;;;19.70;99.90;;;;;;5095988;28;20044;-67
2022/08/29 07:37:49;;;;;;;7.07;2.47;;;20.00;99.90;;;;;;5096744;28;20040;-67
2022/08/29 07:40:17;;;;;;;14.27;2.70;;;20.30;99.90;;;;;;5095345;28;20515;-67
2022/08/29 07:42:43;;;;;;;9.67;3.00;;;20.30;99.90;;;;;;5096049;28;20051;-68
2022/08/29 07:45:11;;;;;;;7.87;2.60;;;20.40;99.90;;;;;;5096114;28;20044;-73
2022/08/29 07:47:37;;;;;;;10.70;2.93;;;20.70;99.90;;;;;;5095379;28;20559;-70
2022/08/29 07:50:06;;;;;;;14.03;3.23;;;21.30;99.90;;;;;;5096144;28;20046;-72
2022/08/29 07:52:32;;;;;;;10.20;3.00;;;21.70;99.90;;;;;;5095898;28;20048;-72
2022/08/29 07:54:58;;;;;;;8.23;2.67;;;21.80;99.90;;;;;;5095724;28;20173;-72
2022/08/29 07:57:24;;;;;;;8.73;2.33;;;21.70;99.90;;;;;;5095461;28;20044;-71
2022/08/29 07:59:49;;;;;;;8.30;2.80;;;21.50;99.90;;;;;;5095694;28;20062;-71
2022/08/29 08:02:16;;;;;;;8.40;2.57;;;21.40;99.90;;;;;;5094334;28;20044;-70
2022/08/29 08:04:42;;;;;;;10.87;2.67;;;21.40;99.90;;;;;;5095450;28;20052;-70
2022/08/29 08:07:09;;;;;;;8.87;2.73;;;21.30;99.90;;;;;;5095742;28;20473;-71
2022/08/29 08:09:36;;;;;;;7.87;2.70;;;21.50;99.90;;;;;;5095161;28;20087;-69
2022/08/29 08:12:04;;;;;;;8.10;2.37;;;21.50;99.90;;;;;;5094304;28;20044;-69
2022/08/29 08:14:32;;;;;;;11.60;2.77;;;21.60;99.90;;;;;;5095358;28;20481;-69
2022/08/29 08:16:58;;;;;;;6.73;2.40;;;21.60;99.90;;;;;;5094997;28;20048;-71
2022/08/29 08:19:24;;;;;;;8.80;2.67;;;21.60;99.90;;;;;;5095249;28;20059;-67
2022/08/29 08:21:50;;;;;;;8.03;2.30;;;21.70;99.90;;;;;;5095453;28;20044;-67
2022/08/29 08:24:20;;;;;;;7.27;2.90;;;21.60;99.90;;;;;;5095049;28;20044;-71
2022/08/29 08:26:47;;;;;;;9.13;2.57;;;21.50;99.90;;;;;;5094763;28;20055;-66
2022/08/29 08:29:13;;;;;;;8.03;2.57;;;21.50;99.90;;;;;;5093657;28;20052;-67
2022/08/29 08:31:43;;;;;;;9.73;2.90;;;21.40;99.90;;;;;;5094684;28;20127;-70
2022/08/29 08:34:12;;;;;;;10.13;3.07;;;21.50;99.90;;;;;;5095302;28;20043;-66
2022/08/29 08:36:39;;;;;;;7.93;2.43;;;21.40;99.90;;;;;;5094545;28;20044;-67
2022/08/29 08:39:05;;;;;;;11.30;2.83;;;21.40;99.90;;;;;;5094984;28;20044;-67
2022/08/29 08:42:00;;;;;;;10.40;2.50;;;21.60;99.90;;;;;;5094633;28;20051;-68
2022/08/29 08:44:55;;;;;;;6.43;2.35;;;21.80;99.90;;;;;;5094213;28;20055;-67
2022/08/29 08:47:30;;;;;;;10.55;2.58;;;21.80;99.90;;;;;;5094833;28;20503;-67
2022/08/29 08:50:25;;;;;;;;;;;21.80;99.90;;;;;;5095592;28;20116;-68
2022/08/29 08:53:08;;;;;;;10.07;2.57;;;21.70;99.90;;;;;;5036165;28;19936;-67
2022/08/29 08:55:55;;;;;;;11.93;2.63;;;21.90;99.90;;;;;;5074085;28;20060;-67
2022/08/29 08:58:41;;;;;;;8.80;2.17;;;22.10;99.90;;;;;;5074261;28;20135;-66
2022/08/29 09:01:31;;;;;;;8.57;2.90;;;22.20;99.90;;;;;;5084470;28;20044;-71
2022/08/29 09:04:02;;;;;;;10.43;2.67;;;22.30;99.90;;;;;;5094844;28;20051;-66
2022/08/29 09:06:53;;;;;;;10.33;2.50;;;22.30;99.90;;;;;;5094410;28;20044;-66
2022/08/29 09:09:37;;;;;;;6.27;2.50;;;22.30;99.90;;;;;;5094682;28;20052;-66
2022/08/29 09:12:08;;;;;;;10.83;3.30;;;22.30;99.90;;;;;;5094594;28;20074;-66
2022/08/29 09:14:40;;;;;;;11.60;2.63;;;22.10;99.90;;;;;;5094348;28;20095;-67
2022/08/29 09:17:14;;;;;;;12.07;3.17;;;21.90;99.90;;;;;;5094322;28;20053;-66
2022/08/29 09:19:40;;;;;;;10.23;2.73;;;21.80;99.90;;;;;;5094218;28;20048;-69
2022/08/29 09:22:14;;;;;;;9.93;2.50;;;21.70;99.90;;;;;;5094108;28;20510;-70
2022/08/29 09:24:48;;;;;;;13.02;3.40;;;21.50;99.90;;;;;;5094095;28;20102;-69
2022/08/29 09:27:27;;;;;;;8.20;3.10;;;21.40;99.90;;;;;;5094509;28;20093;-69
2022/08/29 09:30:14;;;;;;;11.40;3.33;;;21.30;99.90;;;;;;5093854;28;20054;-67
2022/08/29 09:33:01;;;;;;;10.80;2.50;;;21.40;99.90;;;;;;5093884;28;20058;-66
2022/08/29 09:35:46;;;;;;;9.97;2.73;;;21.40;99.90;;;;;;5094176;28;20047;-66
2022/08/29 09:38:20;;;;;;;9.63;3.17;;;21.40;99.90;;;;;;5093929;28;20048;-66
2022/08/29 09:40:59;;;;;;;12.00;3.03;;;21.40;99.90;;;;;;5093423;28;20059;-66
2022/08/29 09:43:37;;;;;;;8.80;2.73;;;21.40;99.90;;;;;;5094143;28;20052;-66
2022/08/29 09:46:09;;;;;;;8.03;2.87;;;21.40;99.90;;;;;;5093726;28;20079;-66
2022/08/29 09:48:37;;;;;;;7.53;2.80;;;21.40;99.90;;;;;;5093389;28;20048;-66
2022/08/29 09:51:09;;;;;;;12.67;3.00;;;21.30;99.90;;;;;;5094028;28;20040;-66
2022/08/29 09:53:35;;;;;;;7.87;2.80;;;21.30;99.90;;;;;;5093514;28;20054;-66
2022/08/29 09:56:07;;;;;;;8.90;2.50;;;21.40;99.90;;;;;;5093842;28;20032;-66
2022/08/29 09:58:36;;;;;;;13.03;2.83;;;21.60;99.90;;;;;;5093702;28;20051;-66
2022/08/29 10:01:04;;;;;;;7.37;2.87;;;21.80;99.90;;;;;;5093425;28;20040;-66
2022/08/29 10:03:34;;;;;;;7.63;2.80;;;21.90;99.90;;;;;;5093800;28;20054;-66
2022/08/29 10:06:15;;;;;;;7.47;2.60;;;21.90;99.90;;;;;;5093398;28;20052;-66
2022/08/29 10:08:53;;;;;;;11.27;2.93;;;22.10;99.90;;;;;;5093123;28;20051;-66
2022/08/29 10:11:30;;;;;;;6.87;2.50;;;22.30;99.90;;;;;;5093423;28;20035;-66
2022/08/29 10:14:00;;;;;;;9.00;2.57;;;22.40;99.90;;;;;;5092829;28;20070;-66
2022/08/29 10:16:26;;;;;;;7.87;2.67;;;22.60;99.90;;;;;;5093276;28;20050;-66
2022/08/29 10:19:05;;;;;;;7.40;2.47;;;22.70;99.90;;;;;;5093223;28;20134;-66
2022/08/29 10:21:53;;;;;;;6.57;2.83;;;22.80;99.90;;;;;;5093354;28;20044;-66
2022/08/29 10:24:28;;;;;;;8.60;2.73;;;22.80;99.90;;;;;;5093435;28;20189;-67
2022/08/29 10:26:59;;;;;;;6.68;2.85;;;22.80;99.90;;;;;;5093028;28;20499;-66
2022/08/29 10:29:49;;;;;;;7.73;2.70;;;22.60;99.90;;;;;;5093300;28;20040;-65
2022/08/29 10:32:38;;;;;;;8.77;3.00;;;22.50;99.90;;;;;;5092159;28;20083;-66
2022/08/29 10:35:22;;;;;;;9.13;2.73;;;22.30;99.90;;;;;;5051567;28;20100;-66
2022/08/29 10:38:05;;;;;;;9.43;2.92;;;22.20;99.90;;;;;;5092699;28;20101;-66
2022/08/29 10:40:42;;;;;;;11.73;3.77;;;22.00;99.90;;;;;;5093092;28;20093;-66
2022/08/29 10:43:33;;;;;;;11.37;3.97;;;21.40;99.90;;;;;;5093108;28;20040;-67
2022/08/29 10:46:27;;;;;;;13.37;4.80;;;21.40;99.90;;;;;;5092825;28;20044;-67
2022/08/29 10:48:58;;;;;;;11.80;4.13;;;21.20;99.90;;;;;;5092635;28;20052;-67
2022/08/29 10:51:32;;;;;;;10.70;3.67;;;21.00;99.90;;;;;;5092200;28;20040;-68
2022/08/29 10:54:13;;;;;;;11.32;3.45;;;20.90;99.90;;;;;;5092463;28;20598;-68
2022/08/29 10:56:43;;;;;;;10.07;3.43;;;20.80;99.90;;;;;;5091745;28;20051;-69
2022/08/29 10:59:34;;;;;;;10.43;3.30;;;20.70;99.90;;;;;;5092714;28;20048;-68
2022/08/29 11:02:07;;;;;;;10.50;3.53;;;20.80;99.90;;;;;;5092361;28;20511;-68
2022/08/29 11:04:44;;;;;;;11.13;3.37;;;20.90;99.90;;;;;;5093006;28;20052;-68
2022/08/29 11:07:15;;;;;;;9.60;3.30;;;21.10;99.90;;;;;;5092904;28;20044;-69
2022/08/29 11:09:53;;;;;;;8.20;3.10;;;21.30;99.90;;;;;;5092655;28;20496;-66
2022/08/29 11:12:43;;;;;;;10.43;3.90;;;21.50;99.90;;;;;;5093057;28;20088;-66
2022/08/29 11:15:41;;;;;;;11.67;3.70;;;21.60;99.90;;;;;;5092812;28;20251;-67
2022/08/29 11:18:18;;;;;;;12.27;3.57;;;21.70;99.90;;;;;;5079925;28;20048;-66
2022/08/29 11:20:50;;;;;;;8.83;4.13;;;21.70;99.90;;;;;;5092042;28;20108;-67
2022/08/29 11:23:37;;;;;;;10.17;3.57;;;21.70;99.90;;;;;;5091789;28;20070;-69
2022/08/29 11:26:29;;;;;;;7.40;2.80;;;21.70;99.90;;;;;;5092219;28;20047;-71
2022/08/29 11:29:01;;;;;;;10.47;3.20;;;21.60;99.90;;;;;;5087157;28;20084;-70
2022/08/29 11:31:49;;;;;;;10.67;3.60;;;21.50;99.90;;;;;;5092527;28;20496;-71
2022/08/29 11:34:32;;;;;;;10.30;3.67;;;21.50;99.90;;;;;;5092520;28;20052;-69
2022/08/29 11:37:24;;;;;;;12.90;3.80;;;21.50;99.90;;;;;;5092110;28;20052;-70
2022/08/29 11:40:00;;;;;;;11.47;3.40;;;21.60;99.90;;;;;;5080322;28;20147;-70
2022/08/29 11:42:37;;;;;;;11.67;3.67;;;21.60;99.90;;;;;;5092440;28;20494;-70
2022/08/29 11:45:05;;;;;;;11.47;3.77;;;21.70;99.90;;;;;;5092083;28;20113;-69
2022/08/29 11:47:31;;;;;;;10.80;3.60;;;21.70;99.90;;;;;;5092167;28;20036;-69
2022/08/29 11:50:20;;;;;;;10.03;4.10;;;21.80;99.90;;;;;;5092107;28;20403;-69
2022/08/29 11:52:56;;;;;;;9.23;3.70;;;21.90;99.90;;;;;;5092405;28;20048;-69
2022/08/29 11:55:40;;;;;;;15.63;3.90;;;22.10;99.90;;;;;;5092348;28;20124;-73
2022/08/29 11:58:15;;;;;;;10.20;3.70;;;22.20;99.90;;;;;;5092125;28;20044;-71
2022/08/29 12:00:47;;;;;;;10.45;3.60;;;22.10;99.90;;;;;;5092399;28;20043;-72
2022/08/29 12:03:45;;;;;;;10.97;3.60;;;22.10;99.90;;;;;;5094368;28;20052;-70
2022/08/29 12:06:20;;;;;;;12.47;3.67;;;22.20;99.90;;;;;;5072007;28;20397;-69
2022/08/29 12:08:49;;;;;;;;;;;22.20;99.90;;;;;;5096334;28;20051;-68
2022/08/29 12:11:17;;;;;;;11.97;4.37;;;22.20;99.90;;;;;;5095866;28;19928;-65
2022/08/29 12:13:47;;;;;;;12.67;4.37;;;22.30;99.90;;;;;;5095854;28;20091;-66
2022/08/29 12:16:25;;;;;;;11.57;3.73;;;22.30;99.90;;;;;;5095134;28;20411;-66
2022/08/29 12:18:53;;;;;;;10.17;3.83;;;22.20;99.90;;;;;;5095444;28;20047;-67
2022/08/29 12:21:35;;;;;;;11.30;4.53;;;22.10;99.90;;;;;;5095596;28;20487;-66
2022/08/29 12:24:20;;;;;;;12.17;3.57;;;22.10;99.90;;;;;;5094005;28;20101;-67
2022/08/29 12:26:46;;;;;;;10.57;3.77;;;22.00;99.90;;;;;;5095593;28;20040;-66
2022/08/29 12:29:21;;;;;;;13.97;4.37;;;21.90;99.90;;;;;;5095061;28;20414;-66
2022/08/29 12:32:25;;;;;;;13.10;4.20;;;21.70;99.90;;;;;;5095442;28;20488;-66
2022/08/29 12:35:26;;;;;;;12.80;3.97;;;21.70;99.90;;;;;;5094280;28;20051;-65
2022/08/29 12:37:57;;;;;;;11.93;3.70;;;21.70;99.90;;;;;;5071596;28;20048;-66
2022/08/29 12:40:45;;;;;;;10.13;3.90;;;21.70;99.90;;;;;;5095221;28;20058;-66
2022/08/29 12:43:29;;;;;;;11.03;3.80;;;21.70;99.90;;;;;;5094782;28;20483;-66
2022/08/29 12:45:55;;;;;;;13.07;3.93;;;21.70;99.90;;;;;;5094839;28;20499;-67
2022/08/29 12:48:40;;;;;;;12.30;4.47;;;21.70;99.90;;;;;;5095085;28;20046;-67
2022/08/29 12:51:06;;;;;;;12.57;4.25;;;21.70;99.90;;;;;;5094865;28;20048;-67
2022/08/29 12:53:33;;;;;;;12.77;4.07;;;21.80;99.90;;;;;;5094985;28;20051;-65
2022/08/29 12:56:12;;;;;;;12.43;3.93;;;21.80;99.90;;;;;;5090929;28;20105;-68
2022/08/29 12:58:45;;;;;;;12.13;3.73;;;21.80;99.90;;;;;;5091330;28;20059;-66
2022/08/29 13:01:38;;;;;;;8.33;2.97;;;21.90;99.90;;;;;;5081126;28;20105;-66
2022/08/29 13:04:10;;;;;;;12.30;3.77;;;22.00;99.90;;;;;;5074318;28;20052;-67
2022/08/29 13:06:48;;;;;;;12.90;4.33;;;22.10;99.90;;;;;;5074291;28;20169;-66